Time;durP1;ratioP1;P1;durP2;ratioP2;P2;SDS_P1;SDS_P2;PMS_P1;PMS_P2;Temp;Humidity;BMP_temperature;BMP_pressure;BME280_temperature;BME280_humidity;BME280_pressure;Samples;Min_cycle;Max_cycle;Signal;HPM_P1;HPM_P2
2022/07/04 00:01:09;;;;;;;2.03;1.52;;;;;;;14.62;68.20;100012.72;4986958;28;20157;-70
2022/07/04 00:03:36;;;;;;;5.65;1.90;;;;;;;14.59;67.86;100013.78;4988279;28;20125;-69
2022/07/04 00:06:02;;;;;;;3.65;1.95;;;;;;;14.53;68.00;100008.84;4980377;28;20050;-69
2022/07/04 00:08:29;;;;;;;3.55;1.92;;;;;;;14.46;68.39;100013.66;4968843;28;20051;-70
2022/07/04 00:10:56;;;;;;;3.42;1.63;;;;;;;14.40;68.19;100014.06;4968077;28;20050;-70
2022/07/04 00:13:22;;;;;;;6.32;2.53;;;;;;;14.41;68.16;100004.28;4968611;28;20047;-70
2022/07/04 00:15:50;;;;;;;3.33;1.95;;;;;;;14.43;68.03;100010.34;4975502;28;20072;-69
2022/07/04 00:18:16;;;;;;;2.63;1.65;;;;;;;14.39;68.08;100013.16;4987941;28;20054;-69
2022/07/04 00:20:43;;;;;;;4.70;1.90;;;;;;;14.37;69.02;100007.13;4987667;28;20046;-69
2022/07/04 00:23:10;;;;;;;2.80;1.67;;;;;;;14.34;68.64;99999.34;4987754;28;20116;-70
2022/07/04 00:25:36;;;;;;;6.10;2.15;;;;;;;14.29;68.80;100009.38;4985505;28;20133;-70
2022/07/04 00:28:03;;;;;;;5.45;2.05;;;;;;;14.23;68.74;100012.41;4986922;28;20058;-69
2022/07/04 00:30:29;;;;;;;2.47;1.70;;;;;;;14.13;69.12;100006.81;4987028;28;20054;-69
2022/07/04 00:32:57;;;;;;;2.67;1.80;;;;;;;14.10;69.12;100003.47;4987470;28;20605;-70
2022/07/04 00:35:24;;;;;;;2.70;1.73;;;;;;;14.04;69.40;100002.06;4987882;28;20129;-71
2022/07/04 00:37:51;;;;;;;4.28;1.70;;;;;;;13.98;69.10;100001.56;4987593;28;20051;-70
2022/07/04 00:40:17;;;;;;;2.88;2.15;;;;;;;13.98;69.50;100001.56;4987429;28;20058;-70
2022/07/04 00:42:44;;;;;;;2.40;1.65;;;;;;;13.96;69.67;100004.34;4988396;28;20047;-69
2022/07/04 00:45:11;;;;;;;4.43;1.92;;;;;;;13.93;69.58;99988.59;4987817;28;20046;-70
2022/07/04 00:47:37;;;;;;;3.45;1.95;;;;;;;13.94;69.54;99987.66;4988097;28;20042;-70
2022/07/04 00:50:06;;;;;;;4.65;1.80;;;;;;;13.88;69.20;99986.25;4987512;28;20057;-70
2022/07/04 00:52:33;;;;;;;5.45;1.95;;;;;;;13.74;69.89;99984.41;4987676;28;20627;-70
2022/07/04 00:55:01;;;;;;;5.43;1.92;;;;;;;13.54;70.91;99987.38;4988017;28;20073;-70
2022/07/04 00:57:28;;;;;;;3.47;2.17;;;;;;;13.57;71.18;99987.19;4987190;28;20058;-70
2022/07/04 00:59:54;;;;;;;6.45;2.72;;;;;;;13.57;70.60;99989.00;4986995;28;20047;-70
2022/07/04 01:02:21;;;;;;;2.13;1.67;;;;;;;13.57;71.12;99992.50;4980398;28;20540;-70
2022/07/04 01:04:47;;;;;;;3.85;1.77;;;;;;;13.55;71.07;99994.38;4987683;28;20129;-70
2022/07/04 01:07:15;;;;;;;3.00;2.10;;;;;;;13.55;71.09;99989.06;4970220;28;20055;-70
2022/07/04 01:09:43;;;;;;;2.78;2.00;;;;;;;13.50;70.63;99986.69;4967528;28;20042;-70
2022/07/04 01:12:09;;;;;;;3.42;2.17;;;;;;;13.47;70.64;99989.50;4976297;28;20130;-70
2022/07/04 01:14:38;;;;;;;3.03;1.67;;;;;;;13.44;71.13;99996.81;4986977;28;20042;-70
2022/07/04 01:17:05;;;;;;;4.18;2.58;;;;;;;13.42;71.49;99988.94;4987179;28;20046;-70
2022/07/04 01:19:32;;;;;;;7.25;2.08;;;;;;;13.38;71.66;100000.63;4986585;28;20409;-70
2022/07/04 01:22:06;;;;;;;4.82;2.20;;;;;;;13.34;72.17;99995.59;4979023;28;20417;-70
2022/07/04 01:24:32;;;;;;;8.48;2.22;;;;;;;13.31;71.92;99999.28;4980033;28;20054;-70
2022/07/04 01:26:59;;;;;;;2.47;2.10;;;;;;;13.27;72.17;99987.19;4973427;28;20582;-70
2022/07/04 01:29:25;;;;;;;2.45;1.98;;;;;;;13.28;71.93;99991.50;4971786;28;20524;-70
2022/07/04 01:31:53;;;;;;;2.80;1.70;;;;;;;13.20;71.87;99989.28;4973308;28;20043;-71
2022/07/04 01:34:20;;;;;;;8.70;2.08;;;;;;;13.15;72.21;99990.50;4974796;28;20138;-70
2022/07/04 01:36:46;;;;;;;4.75;2.50;;;;;;;13.16;71.59;100000.13;4973752;28;20051;-71
2022/07/04 01:39:14;;;;;;;4.00;2.13;;;;;;;13.15;71.99;100001.06;4971705;28;20078;-71
2022/07/04 01:41:41;;;;;;;5.25;1.83;;;;;;;13.12;71.79;100002.09;4971183;28;20043;-72
2022/07/04 01:44:07;;;;;;;7.38;2.47;;;;;;;13.07;72.15;99990.94;4972186;28;20053;-71
2022/07/04 01:46:34;;;;;;;6.70;2.65;;;;;;;13.06;72.29;99997.97;4971977;28;20047;-70
2022/07/04 01:49:00;;;;;;;3.22;2.05;;;;;;;13.05;71.95;100004.22;4972002;28;20058;-71
2022/07/04 01:51:27;;;;;;;3.30;1.80;;;;;;;13.02;72.53;99996.47;4970716;28;20062;-71
2022/07/04 01:53:53;;;;;;;8.98;2.05;;;;;;;12.99;71.67;99999.25;4971255;28;20046;-70
2022/07/04 01:56:21;;;;;;;4.10;2.00;;;;;;;13.00;72.15;100002.78;4971536;28;20058;-70
2022/07/04 01:58:48;;;;;;;2.88;2.13;;;;;;;12.95;72.21;100002.19;4971216;28;20074;-69
2022/07/04 02:01:32;;;;;;;6.07;1.98;;;;;;;12.94;72.55;100000.47;4970125;28;20055;-69
2022/07/04 02:03:59;;;;;;;2.83;1.95;;;;;;;12.93;72.44;100004.91;4971264;28;20042;-69
2022/07/04 02:06:26;;;;;;;3.58;1.80;;;;;;;12.93;72.39;99998.78;4970887;28;20057;-70
2022/07/04 02:14:23;;;;;;;3.35;1.80;;;;;;;12.78;72.03;100003.97;4991985;28;20567;-69
2022/07/04 02:16:50;;;;;;;2.55;1.77;;;;;;;12.77;72.89;100007.53;4987631;28;20042;-70
2022/07/04 02:19:16;;;;;;;5.20;2.08;;;;;;;12.77;72.57;100006.69;4988396;28;20050;-70
2022/07/04 02:21:43;;;;;;;4.25;2.00;;;;;;;12.72;72.54;100003.44;4990058;28;20070;-70
2022/07/04 02:24:10;;;;;;;3.78;2.10;;;;;;;12.63;73.08;100004.81;4990613;28;20054;-70
2022/07/04 02:26:38;;;;;;;6.85;2.15;;;;;;;12.57;73.19;100015.72;4989942;28;20133;-70
2022/07/04 02:29:04;;;;;;;7.10;1.90;;;;;;;12.51;73.14;100016.06;4990122;28;20494;-70
2022/07/04 02:31:31;;;;;;;4.82;2.30;;;;;;;12.45;73.40;100018.09;4989546;28;20054;-70
2022/07/04 02:33:57;;;;;;;3.00;2.13;;;;;;;12.44;73.71;100007.59;4990221;28;20394;-70
2022/07/04 02:36:24;;;;;;;6.75;1.95;;;;;;;12.44;73.66;100018.16;4990057;28;20133;-70
2022/07/04 02:38:51;;;;;;;3.15;1.73;;;;;;;12.41;73.14;100021.81;4989009;28;20046;-71
2022/07/04 02:41:17;;;;;;;3.33;1.95;;;;;;;12.38;73.60;100026.41;4989126;28;20051;-71
2022/07/04 02:43:45;;;;;;;8.23;2.67;;;;;;;12.35;73.97;100027.41;4990045;28;20053;-70
2022/07/04 02:46:12;;;;;;;4.80;2.35;;;;;;;12.32;74.09;100018.81;4989888;28;20050;-71
2022/07/04 02:48:38;;;;;;;5.85;2.55;;;;;;;12.31;73.86;100030.34;4990901;28;20046;-70
2022/07/04 02:51:05;;;;;;;3.22;1.90;;;;;;;12.32;74.44;100024.94;4989347;28;20587;-71
2022/07/04 02:53:31;;;;;;;2.90;2.20;;;;;;;12.32;73.99;100035.50;4990094;28;20073;-71
2022/07/04 02:55:58;;;;;;;3.47;2.45;;;;;;;12.31;74.10;100035.63;4989795;28;20050;-71
2022/07/04 02:58:24;;;;;;;12.25;2.47;;;;;;;12.30;74.11;100040.03;4989152;28;20056;-70
2022/07/04 03:00:52;;;;;;;3.75;1.80;;;;;;;12.29;73.98;100034.84;4988480;28;20065;-70
2022/07/04 03:03:19;;;;;;;4.45;2.15;;;;;;;12.28;74.00;100039.28;4989482;28;20133;-69
2022/07/04 03:05:45;;;;;;;4.80;2.30;;;;;;;12.29;74.26;100045.41;4983836;28;20049;-69
2022/07/04 03:08:12;;;;;;;6.80;2.13;;;;;;;12.29;74.27;100034.84;4969702;28;20054;-69
2022/07/04 03:10:39;;;;;;;3.60;2.78;;;;;;;12.32;74.59;100048.75;4969723;28;20070;-70
2022/07/04 03:13:05;;;;;;;4.88;2.05;;;;;;;12.33;74.28;100052.22;4969726;28;20057;-70
2022/07/04 03:15:32;;;;;;;3.47;2.45;;;;;;;12.32;74.00;100059.31;4981084;28;20046;-70
2022/07/04 03:18:00;;;;;;;4.90;3.22;;;;;;;12.31;74.47;100059.41;4986761;28;20424;-70
2022/07/04 03:20:27;;;;;;;3.53;2.55;;;;;;;12.32;74.19;100056.66;4969216;28;20138;-70
2022/07/04 03:22:54;;;;;;;3.67;2.05;;;;;;;12.33;74.06;100057.50;4984519;28;20125;-70
2022/07/04 03:25:21;;;;;;;3.95;2.45;;;;;;;12.30;73.77;100062.97;4988749;28;20057;-70
2022/07/04 03:27:47;;;;;;;6.70;2.63;;;;;;;12.28;74.24;100070.13;4988969;28;20416;-70
2022/07/04 03:30:14;;;;;;;4.30;2.92;;;;;;;12.25;74.41;100064.06;4988531;28;20138;-70
2022/07/04 03:32:40;;;;;;;3.28;2.38;;;;;;;12.23;74.36;100078.28;4988525;28;20566;-70
2022/07/04 03:35:09;;;;;;;3.97;2.78;;;;;;;12.21;74.04;100067.81;4989066;28;20155;-70
2022/07/04 03:37:36;;;;;;;6.57;3.22;;;;;;;12.21;74.78;100073.09;4988570;28;20049;-70
2022/07/04 03:40:03;;;;;;;4.40;2.47;;;;;;;12.19;74.07;100071.47;4987923;28;20060;-70
2022/07/04 03:42:29;;;;;;;3.97;2.40;;;;;;;12.16;74.96;100071.63;4988534;28;20046;-71
2022/07/04 03:44:56;;;;;;;4.53;2.20;;;;;;;12.13;74.60;100061.19;4988753;28;20510;-70
2022/07/04 03:47:23;;;;;;;2.45;2.05;;;;;;;12.10;74.52;100069.28;4988670;28;20052;-70
2022/07/04 03:49:50;;;;;;;4.05;2.67;;;;;;;12.08;74.76;100068.50;4988094;28;20125;-70
2022/07/04 03:52:18;;;;;;;4.07;2.40;;;;;;;12.05;74.71;100073.94;4988374;28;20521;-70
2022/07/04 03:54:45;;;;;;;3.95;2.28;;;;;;;12.00;75.08;100068.91;4988506;28;20405;-70
2022/07/04 03:57:11;;;;;;;3.05;2.22;;;;;;;12.00;75.67;100069.75;4987587;28;20060;-70
2022/07/04 03:59:38;;;;;;;5.38;2.65;;;;;;;12.00;75.80;100066.25;4988369;28;20043;-70
2022/07/04 04:02:05;;;;;;;8.20;3.58;;;;;;;12.01;75.15;100070.59;4988106;28;20050;-70
2022/07/04 04:07:17;;;;;;;5.10;2.47;;;;;;;11.96;75.52;100060.28;4970607;28;20110;-70
2022/07/04 04:09:44;;;;;;;4.57;2.47;;;;;;;11.95;75.42;100071.75;4974830;28;20062;-71
2022/07/04 04:12:11;;;;;;;3.13;2.40;;;;;;;11.99;75.46;100075.97;4987659;28;20078;-71
2022/07/04 04:14:38;;;;;;;6.68;2.70;;;;;;;12.03;75.95;100068.72;4983194;28;20600;-70
2022/07/04 04:17:04;;;;;;;4.78;2.60;;;;;;;12.04;75.52;100065.19;4968926;28;20053;-69
2022/07/04 04:19:31;;;;;;;6.05;2.53;;;;;;;12.07;75.55;100070.28;4968168;28;20065;-70
2022/07/04 04:21:58;;;;;;;3.22;2.40;;;;;;;12.10;75.83;100075.41;4983895;28;20049;-69
2022/07/04 04:24:26;;;;;;;3.92;2.05;;;;;;;12.15;75.61;100078.69;4988411;28;20505;-69
2022/07/04 04:26:52;;;;;;;3.63;2.45;;;;;;;12.23;75.03;100083.56;4988407;28;20047;-70
2022/07/04 04:29:19;;;;;;;3.40;2.15;;;;;;;12.30;75.08;100078.84;4988429;28;20060;-70
2022/07/04 04:31:45;;;;;;;5.65;2.40;;;;;;;12.36;74.72;100079.38;4987962;28;20042;-71
2022/07/04 04:34:12;;;;;;;4.25;2.60;;;;;;;12.39;74.31;100076.56;4988167;28;20054;-70
2022/07/04 04:36:38;;;;;;;8.23;2.92;;;;;;;12.42;75.02;100076.41;4988685;28;20196;-71
2022/07/04 04:39:05;;;;;;;6.25;2.53;;;;;;;12.49;74.91;100076.94;4987902;28;20046;-70
2022/07/04 04:41:33;;;;;;;5.70;2.40;;;;;;;12.61;73.77;100078.94;4987456;28;20054;-70
2022/07/04 04:44:00;;;;;;;4.57;2.33;;;;;;;12.69;74.07;100081.19;4987934;28;20046;-71
2022/07/04 04:46:26;;;;;;;6.75;2.90;;;;;;;12.78;74.14;100085.13;4987560;28;20051;-71
2022/07/04 04:48:53;;;;;;;4.63;2.38;;;;;;;12.83;73.42;100075.16;4987842;28;20141;-70
2022/07/04 04:51:19;;;;;;;7.82;2.40;;;;;;;12.90;73.50;100071.25;4987140;28;20536;-70
2022/07/04 04:53:46;;;;;;;5.15;2.42;;;;;;;13.01;73.23;100075.94;4987404;28;20052;-70
2022/07/04 04:56:13;;;;;;;4.57;2.80;;;;;;;13.12;73.67;100078.88;4987368;28;20061;-70
2022/07/04 04:58:41;;;;;;;2.97;2.05;;;;;;;13.25;72.55;100076.38;4987987;28;20046;-70
2022/07/04 05:01:07;;;;;;;5.43;2.47;;;;;;;13.35;72.21;100066.16;4986668;28;20125;-70
2022/07/04 05:03:34;;;;;;;4.90;2.90;;;;;;;13.42;72.43;100083.44;4990730;28;20498;-71
2022/07/04 05:06:01;;;;;;;6.13;2.28;;;;;;;13.50;72.35;100076.75;4984247;28;20055;-71
2022/07/04 05:08:28;;;;;;;3.25;2.08;;;;;;;13.63;71.90;100079.53;4991599;28;20594;-70
2022/07/04 05:10:54;;;;;;;3.38;2.38;;;;;;;13.78;71.74;100084.91;4990479;28;20042;-72
2022/07/04 05:13:21;;;;;;;3.90;2.28;;;;;;;13.91;71.04;100084.13;4991084;28;20050;-70
2022/07/04 05:15:49;;;;;;;4.22;2.50;;;;;;;14.07;71.12;100083.22;4991218;28;20049;-71
2022/07/04 05:18:16;;;;;;;6.32;2.75;;;;;;;14.24;70.23;100083.06;4991275;28;20050;-72
2022/07/04 05:20:42;;;;;;;5.03;1.75;;;;;;;14.40;70.16;100083.00;4991126;28;20061;-72
2022/07/04 05:23:09;;;;;;;4.65;2.50;;;;;;;14.56;69.57;100088.25;4991743;28;20054;-70
2022/07/04 05:25:35;;;;;;;6.05;2.45;;;;;;;14.72;69.04;100096.16;4991153;28;20052;-72
2022/07/04 05:28:02;;;;;;;7.55;2.78;;;;;;;14.87;68.64;100081.09;4991677;28;20050;-70
2022/07/04 05:30:29;;;;;;;5.25;2.58;;;;;;;15.02;67.97;100086.28;4990663;28;20046;-73
2022/07/04 05:32:58;;;;;;;4.32;1.77;;;;;;;15.20;66.91;100086.91;4990972;28;20125;-71
2022/07/04 05:35:24;;;;;;;6.80;2.35;;;;;;;15.35;65.91;100087.72;4990610;28;20105;-72
2022/07/04 05:37:51;;;;;;;4.32;2.17;;;;;;;15.57;65.52;100086.34;4991097;28;20070;-71
2022/07/04 05:40:17;;;;;;;6.18;2.22;;;;;;;15.87;64.18;100083.50;4990234;28;20133;-71
2022/07/04 05:42:44;;;;;;;3.22;1.98;;;;;;;16.10;63.56;100077.50;4990905;28;20133;-72
2022/07/04 05:45:11;;;;;;;3.80;2.38;;;;;;;16.32;62.78;100073.38;4991808;28;20069;-70
2022/07/04 05:47:38;;;;;;;6.72;1.65;;;;;;;16.50;62.61;100077.44;4991334;28;20156;-71
2022/07/04 05:50:07;;;;;;;3.65;1.83;;;;;;;16.68;62.24;100072.63;4990477;28;20129;-71
2022/07/04 05:52:34;;;;;;;6.78;2.25;;;;;;;16.82;61.26;100069.03;4990851;28;20133;-69
2022/07/04 05:55:00;;;;;;;2.83;1.50;;;;;;;17.08;60.51;100068.97;4991251;28;20153;-70
2022/07/04 05:57:27;;;;;;;2.55;1.30;;;;;;;17.52;58.95;100065.78;4990208;28;20054;-69
2022/07/04 05:59:54;;;;;;;5.25;1.80;;;;;;;17.80;57.77;100059.25;4990998;28;20054;-69
2022/07/04 06:02:20;;;;;;;4.57;1.90;;;;;;;17.84;57.21;100069.69;4990688;28;20061;-69
2022/07/04 06:04:47;;;;;;;4.32;1.50;;;;;;;17.81;57.48;100060.94;4990585;28;20121;-69
2022/07/04 06:07:15;;;;;;;4.03;1.55;;;;;;;17.84;57.40;100067.03;4972575;28;20043;-68
2022/07/04 06:09:42;;;;;;;5.45;1.88;;;;;;;17.83;56.36;100066.19;4970550;28;20042;-70
2022/07/04 06:12:08;;;;;;;5.20;1.60;;;;;;;17.80;56.26;100061.06;4970356;28;20426;-68
2022/07/04 06:14:35;;;;;;;6.18;1.70;;;;;;;17.78;55.85;100058.47;4969902;28;20051;-68
2022/07/04 06:17:02;;;;;;;6.57;1.95;;;;;;;17.80;55.92;100066.41;4970961;28;20055;-69
2022/07/04 06:19:29;;;;;;;5.55;1.92;;;;;;;17.80;55.89;100066.41;4970787;28;20403;-68
2022/07/04 06:21:56;;;;;;;3.65;1.70;;;;;;;17.82;55.77;100067.16;4981916;28;20054;-69
2022/07/04 06:24:24;;;;;;;3.55;1.58;;;;;;;17.89;55.41;100064.84;4990171;28;20053;-69
2022/07/04 06:26:50;;;;;;;6.20;2.13;;;;;;;17.91;55.20;100055.78;4990133;28;20433;-70
2022/07/04 06:29:17;;;;;;;5.63;1.98;;;;;;;17.93;55.60;100056.50;4989911;28;20050;-70
2022/07/04 06:31:43;;;;;;;6.38;2.30;;;;;;;17.99;55.00;100063.19;4989386;28;20052;-69
2022/07/04 06:36:54;;;;;;;4.38;2.28;;;;;;;18.26;54.39;100052.22;4989818;28;20216;-69
2022/07/04 06:39:21;;;;;;;8.88;2.35;;;;;;;18.38;54.70;100063.78;4989164;28;20046;-67
2022/07/04 06:41:49;;;;;;;5.70;2.00;;;;;;;18.61;54.03;100052.16;4989025;28;20523;-69
2022/07/04 06:44:15;;;;;;;4.15;1.80;;;;;;;18.79;53.06;100057.06;4989549;28;20137;-68
2022/07/04 06:46:44;;;;;;;4.93;2.67;;;;;;;18.99;52.73;100056.31;4990514;28;20053;-68
2022/07/04 06:49:10;;;;;;;5.70;2.58;;;;;;;19.05;52.33;100058.50;4990430;28;20713;-68
2022/07/04 06:51:37;;;;;;;4.85;2.92;;;;;;;19.07;51.88;100061.03;4990083;28;20062;-68
2022/07/04 06:54:03;;;;;;;3.28;1.67;;;;;;;19.06;52.00;100060.19;4992305;28;20047;-69
2022/07/04 06:56:30;;;;;;;7.72;2.03;;;;;;;19.12;50.96;100058.00;4994246;28;20046;-68
2022/07/04 06:58:59;;;;;;;4.90;2.20;;;;;;;19.08;50.79;100058.25;4991597;28;20066;-68
2022/07/04 07:01:25;;;;;;;4.45;1.70;;;;;;;19.13;50.64;100049.03;4994169;28;20076;-68
2022/07/04 07:03:52;;;;;;;6.30;1.83;;;;;;;19.08;50.84;100055.59;4992770;28;20046;-68
2022/07/04 07:06:19;;;;;;;2.95;1.77;;;;;;;19.08;51.05;100052.06;4988098;28;20054;-68
2022/07/04 07:08:45;;;;;;;2.90;1.45;;;;;;;19.11;50.20;100057.16;4989881;28;20046;-69
2022/07/04 07:11:18;;;;;;;6.13;2.00;;;;;;;19.15;50.35;100047.06;4989488;28;20126;-69
2022/07/04 07:13:47;;;;;;;6.20;2.47;;;;;;;19.20;50.67;100044.88;4990472;28;20686;-68
2022/07/04 07:16:16;;;;;;;5.45;2.03;;;;;;;19.29;50.36;100055.66;4989946;28;20046;-68
2022/07/04 07:18:42;;;;;;;3.88;1.83;;;;;;;19.34;50.56;100047.25;4989559;28;20054;-68
2022/07/04 07:21:09;;;;;;;4.57;2.08;;;;;;;19.48;50.36;100049.66;4988862;28;20453;-68
2022/07/04 07:23:38;;;;;;;5.30;1.90;;;;;;;19.58;49.29;100051.59;4989636;28;20134;-68
2022/07/04 07:26:05;;;;;;;3.75;1.77;;;;;;;19.67;49.14;100051.72;4989110;28;20046;-68
2022/07/04 07:28:32;;;;;;;4.18;1.60;;;;;;;19.93;48.18;100051.34;4989456;28;20054;-68
2022/07/04 07:30:58;;;;;;;5.97;1.60;;;;;;;20.24;47.78;100054.94;4988127;28;20580;-68
2022/07/04 07:33:26;;;;;;;4.95;2.35;;;;;;;20.58;47.07;100054.78;4989346;28;20050;-70
2022/07/04 07:35:53;;;;;;;6.50;2.17;;;;;;;20.68;46.81;100063.69;4988807;28;20058;-69
2022/07/04 07:38:19;;;;;;;6.47;2.00;;;;;;;20.91;46.21;100053.63;4988582;28;20133;-67
2022/07/04 07:40:46;;;;;;;7.68;2.15;;;;;;;21.05;45.52;100063.16;4988210;28;20514;-69
2022/07/04 07:43:12;;;;;;;5.65;1.52;;;;;;;21.21;45.14;100065.28;4989031;28;20084;-69
2022/07/04 07:45:39;;;;;;;9.77;2.13;;;;;;;21.42;44.90;100065.25;4989597;28;20052;-71
2022/07/04 07:48:06;;;;;;;5.30;1.85;;;;;;;21.52;44.96;100074.16;4989767;28;20046;-71
2022/07/04 07:50:34;;;;;;;6.50;1.90;;;;;;;21.61;44.98;100070.66;4988399;28;20214;-67
2022/07/04 07:53:01;;;;;;;3.10;1.77;;;;;;;21.57;44.43;100069.22;4988504;28;20046;-68
2022/07/04 07:55:28;;;;;;;5.55;1.75;;;;;;;21.46;44.31;100069.31;4986768;28;20046;-68
2022/07/04 07:57:54;;;;;;;5.45;1.95;;;;;;;21.42;45.01;100084.03;4988179;28;20105;-68
2022/07/04 08:00:21;;;;;;;7.50;2.60;;;;;;;21.42;45.12;100075.97;4987541;28;20054;-68
2022/07/04 08:05:32;;;;;;;3.22;1.60;;;;;;;21.31;44.81;100076.88;4988243;28;20060;-68
2022/07/04 08:08:00;;;;;;;4.70;1.85;;;;;;;21.38;44.90;100072.66;4988282;28;20053;-70
2022/07/04 08:10:27;;;;;;;6.60;1.90;;;;;;;21.45;44.86;100078.38;4986152;28;20042;-71
2022/07/04 08:12:55;;;;;;;3.95;1.77;;;;;;;21.47;44.43;100075.56;4986519;28;20509;-71
2022/07/04 08:15:22;;;;;;;7.25;1.58;;;;;;;21.52;43.62;100082.19;4987565;28;20046;-72
2022/07/04 08:17:49;;;;;;;4.05;1.77;;;;;;;21.53;43.90;100075.00;4987682;28;20048;-72
2022/07/04 08:20:15;;;;;;;5.18;1.52;;;;;;;21.60;44.29;100074.28;4987392;28;20093;-73
2022/07/04 08:22:42;;;;;;;3.53;2.08;;;;;;;21.71;43.03;100077.84;4987307;28;20046;-73
2022/07/04 08:25:10;;;;;;;4.03;2.25;;;;;;;21.89;43.03;100075.31;4987871;28;20133;-72
2022/07/04 08:27:37;;;;;;;3.50;1.90;;;;;;;21.65;43.11;100074.72;4988097;28;20050;-70
2022/07/04 08:30:05;;;;;;;4.70;1.33;;;;;;;21.59;43.25;100069.94;4986987;28;20050;-71
2022/07/04 08:32:32;;;;;;;5.85;1.83;;;;;;;21.63;43.32;100068.69;4987856;28;20050;-72
2022/07/04 08:34:59;;;;;;;5.07;2.42;;;;;;;21.79;43.20;100067.25;4987931;28;20049;-72
2022/07/04 08:37:25;;;;;;;6.38;2.92;;;;;;;21.91;47.34;100068.81;4987225;28;20050;-63
2022/07/04 08:39:52;;;;;;;5.78;2.47;;;;;;;22.07;45.60;100061.00;4986772;28;20049;-63
2022/07/04 08:42:22;;;;;;;2.80;1.60;;;;;;;22.03;42.83;100062.31;4987701;28;20496;-61
2022/07/04 08:44:51;;;;;;;4.25;2.15;;;;;;;22.08;43.28;100076.16;4988266;28;20042;-64
2022/07/04 08:47:20;;;;;;;6.25;1.88;;;;;;;22.09;42.86;100066.25;4987990;28;20048;-64
2022/07/04 08:49:55;;;;;;;4.65;1.80;;;;;;;21.97;42.47;100068.25;4987944;28;20073;-63
2022/07/04 08:52:34;;;;;;;5.22;1.70;;;;;;;22.27;41.96;100069.97;4979753;28;20054;-63
2022/07/04 09:00:32;;;;;;;6.28;2.58;;;;;;;22.93;37.28;100071.72;4968009;28;19937;-74
2022/07/04 09:03:01;;;;;;;5.68;2.10;;;;;;;23.20;36.40;100069.22;4968240;28;20059;-72
2022/07/04 09:05:28;;;;;;;4.75;1.77;;;;;;;23.49;38.08;100069.06;4971156;28;20133;-72
2022/07/04 09:07:55;;;;;;;2.38;1.38;;;;;;;23.33;38.24;100070.56;4987872;28;20046;-71
2022/07/04 09:10:22;;;;;;;8.23;2.33;;;;;;;23.06;39.48;100073.25;4987016;28;20137;-73
2022/07/04 09:12:50;;;;;;;5.07;1.90;;;;;;;23.02;39.83;100067.34;4987683;28;20042;-76
2022/07/04 09:15:18;;;;;;;6.50;2.15;;;;;;;22.68;40.38;100067.84;4987972;28;20050;-75
2022/07/04 09:17:45;;;;;;;6.38;2.63;;;;;;;23.26;39.54;100058.72;4987244;28;20045;-75
2022/07/04 09:20:14;;;;;;;6.40;2.20;;;;;;;23.72;37.96;100061.38;4987501;28;20054;-76
2022/07/04 09:22:40;;;;;;;3.20;1.58;;;;;;;23.87;37.61;100059.00;4987775;28;20051;-74
2022/07/04 09:25:08;;;;;;;3.97;1.40;;;;;;;23.33;38.29;100057.13;4989917;28;20510;-76
2022/07/04 09:27:36;;;;;;;9.63;2.35;;;;;;;23.36;37.63;100059.50;4990078;28;20051;-73
2022/07/04 09:30:07;;;;;;;6.43;2.42;;;;;;;24.46;35.64;100052.09;4986922;28;20050;-73
2022/07/04 09:32:35;;;;;;;3.35;2.10;;;;;;;25.38;33.59;100049.69;4987593;28;20101;-71
2022/07/04 09:35:03;;;;;;;3.15;1.67;;;;;;;26.34;32.46;100033.72;4987318;28;20109;-75
2022/07/04 09:37:37;;;;;;;4.63;1.92;;;;;;;27.36;30.50;100033.03;4987947;28;20043;-76
2022/07/04 09:40:06;;;;;;;3.03;1.77;;;;;;;27.94;29.74;100025.38;4986663;28;20042;-73
2022/07/04 09:42:37;;;;;;;4.45;2.30;;;;;;;28.34;29.13;100021.44;4987537;28;20050;-75
2022/07/04 09:45:11;;;;;;;5.70;2.00;;;;;;;28.65;28.95;100023.19;4987233;28;20528;-74
2022/07/04 09:47:39;;;;;;;4.15;2.33;;;;;;;29.00;28.19;100032.41;4981876;28;20137;-74
2022/07/04 09:50:08;;;;;;;2.88;1.50;;;;;;;29.54;27.83;100034.75;4990123;28;20047;-74
2022/07/04 09:52:49;;;;;;;3.47;1.85;;;;;;;29.86;27.10;100032.56;4991124;28;20046;-74
2022/07/04 09:55:22;;;;;;;7.65;1.80;;;;;;;28.26;28.94;100033.22;4990637;28;20046;-73
2022/07/04 09:57:49;;;;;;;2.95;1.33;;;;;;;27.09;30.91;100043.28;4989704;28;20133;-72
2022/07/04 10:00:26;;;;;;;3.15;2.03;;;;;;;27.37;30.65;100034.75;4990048;28;20111;-72
2022/07/04 10:02:54;;;;;;;5.25;2.40;;;;;;;28.29;30.07;100029.28;4990522;28;20054;-72
2022/07/04 10:05:23;;;;;;;6.18;2.78;;;;;;;28.79;28.93;100033.16;4988527;28;20137;-73
2022/07/04 10:07:50;;;;;;;7.30;2.40;;;;;;;29.43;27.76;100031.69;4989619;28;20398;-73
2022/07/04 10:10:29;;;;;;;5.22;2.22;;;;;;;28.60;28.77;100028.31;4990170;28;20054;-73
2022/07/04 10:12:57;;;;;;;3.83;2.00;;;;;;;28.95;28.57;100031.31;4990360;28;20138;-73
2022/07/04 10:15:25;;;;;;;7.80;1.92;;;;;;;29.66;27.50;100016.09;4989981;28;20133;-73
2022/07/04 10:17:52;;;;;;;4.22;2.00;;;;;;;29.41;27.02;100031.91;4990349;28;20054;-72
2022/07/04 10:20:19;;;;;;;6.78;1.98;;;;;;;28.59;28.73;100015.78;4989392;28;20050;-72
2022/07/04 10:22:46;;;;;;;3.28;2.15;;;;;;;29.44;27.17;100015.19;4990415;28;20042;-72
2022/07/04 10:25:12;;;;;;;5.40;2.08;;;;;;;29.96;26.43;100021.38;4990310;28;20808;-72
2022/07/04 10:27:39;;;;;;;4.03;1.80;;;;;;;30.38;25.11;100014.19;4990860;28;20042;-74
2022/07/04 10:30:08;;;;;;;3.03;1.60;;;;;;;30.67;25.04;100009.53;4989336;28;20451;-73
2022/07/04 10:32:37;;;;;;;2.83;1.60;;;;;;;30.05;25.58;100011.19;4989345;28;20112;-74
2022/07/04 10:35:06;;;;;;;10.80;2.47;;;;;;;30.32;25.32;100002.22;4989583;28;20488;-72
2022/07/04 10:38:07;;;;;;;3.75;1.80;;;;;;;30.86;24.74;100000.66;4989454;28;20054;-73
2022/07/04 10:40:42;;;;;;;4.70;1.95;;;;;;;30.94;25.29;99996.91;4928494;29;20553;-72
2022/07/04 10:43:43;;;;;;;4.93;1.65;;;;;;;31.02;25.49;99992.13;4932196;28;20142;-73
2022/07/04 10:46:37;;;;;;;9.98;1.80;;;;;;;31.31;24.85;99998.31;4997904;28;20050;-72
2022/07/04 10:49:07;;;;;;;4.15;1.98;;;;;;;31.48;24.48;99996.09;4995641;28;20048;-72
2022/07/04 10:51:42;;;;;;;4.78;2.13;;;;;;;31.55;24.40;99993.34;5008624;28;20133;-72
2022/07/04 10:54:12;;;;;;;7.03;2.40;;;;;;;31.65;24.18;99988.31;5009403;28;20121;-71
2022/07/04 10:56:44;;;;;;;6.05;1.98;;;;;;;31.44;24.74;99989.34;5009219;28;20498;-72
2022/07/04 10:59:16;;;;;;;4.90;2.08;;;;;;;31.28;24.23;99982.34;5009021;28;20089;-72
2022/07/04 11:01:47;;;;;;;5.35;1.73;;;;;;;30.67;24.79;99990.47;5007381;28;20053;-73
2022/07/04 11:04:48;;;;;;;4.38;1.80;;;;;;;29.63;26.11;99999.28;5008780;28;20068;-71
2022/07/04 11:07:15;;;;;;;4.75;1.60;;;;;;;28.70;27.15;99996.31;4991382;28;20069;-71
2022/07/04 11:09:43;;;;;;;4.82;1.38;;;;;;;27.93;28.87;100004.72;4989693;28;20045;-72
2022/07/04 11:12:10;;;;;;;4.38;1.85;;;;;;;27.56;30.43;99998.19;4988837;28;20061;-71
2022/07/04 11:14:39;;;;;;;3.40;1.70;;;;;;;26.89;31.25;100002.28;4989204;28;20421;-72
2022/07/04 11:17:07;;;;;;;3.95;1.75;;;;;;;26.25;32.42;100001.44;4999011;28;20077;-71
2022/07/04 11:19:35;;;;;;;4.30;1.70;;;;;;;25.74;32.20;99995.38;5008564;28;20060;-72
2022/07/04 11:22:02;;;;;;;5.28;2.10;;;;;;;25.51;32.46;99992.50;5007784;28;20420;-71
2022/07/04 11:24:29;;;;;;;4.78;1.67;;;;;;;25.52;32.26;99991.47;5008776;28;20524;-72
2022/07/04 11:26:55;;;;;;;2.25;1.20;;;;;;;25.09;32.69;99991.53;5008477;28;20386;-72
2022/07/04 11:29:22;;;;;;;2.60;1.30;;;;;;;25.20;31.79;99995.81;5008550;28;20069;-71
2022/07/04 11:31:52;;;;;;;3.97;1.92;;;;;;;25.05;31.88;99991.00;5007728;28;20467;-70
2022/07/04 11:34:19;;;;;;;5.55;2.00;;;;;;;25.07;32.66;99989.00;5008745;28;20054;-71
2022/07/04 11:36:49;;;;;;;3.08;1.60;;;;;;;25.26;32.49;99990.59;5007923;28;20504;-71
2022/07/04 11:39:19;;;;;;;4.35;1.85;;;;;;;25.39;32.00;99982.03;5008118;28;20078;-71
2022/07/04 11:47:20;;;;;;;3.60;1.98;;;;;;;25.68;31.83;99972.59;5008300;28;20095;-72
2022/07/04 11:49:49;;;;;;;6.10;2.20;;;;;;;25.61;32.35;99972.41;5008105;28;20045;-73
2022/07/04 11:52:19;;;;;;;5.97;2.53;;;;;;;25.57;33.03;99975.63;5007812;28;20053;-72
2022/07/04 11:54:48;;;;;;;3.15;1.85;;;;;;;25.74;33.17;99982.72;5008199;28;20068;-73